Latest METARs, TAFs and NOTAMs for ETSI


---------------------------------------------------------------------------
	(OBSERVATIONS)
ETSI 270120Z AUTO 08005KT //// // ////// 03/01 Q1013 ///=
ETSI 270020Z AUTO 08004KT //// // ////// 03/01 Q1014 ///=
ETSI 262320Z AUTO 07005KT //// // ////// 03/01 Q1014 ///=
---------------------------------------------------------------------------
	(FC)
TAF ETSI 262300Z NIL=
---------------------------------------------------------------------------
	(TERMINAL AREA FORECAST)
ETSI 262300Z NIL=
---------------------------------------------------------------------------
	(NOTAMS)


ETSI E1091/14 SPECIAL ACTIVITY AREA ESTABLISHED FOR GLIDER AEROBATICS
    RADIUS 3NM CENTERED AT 4842N 01132E INGOLSTADT/MANCHING AIRFIELD.
    GND - 6000FT AMSL, SAT-SUN 0700-SS, DEC 25 26 0700-SS, 26
    OCT 07:00 2014 UNTIL 28 DEC 15:14 2014. CREATED: 07 MAY 09:44
    2014

ETSI P6270/14 AD ETSI: PAR RWY25L/07R OUT OF SERVICE. 02 OCT
    15:00 2014 UNTIL 23 DEC 13:00 2014. CREATED: 01 OCT 12:23
    2014

ETSI P7158/14 AD ETSI: TACAN APCH RWY07R SUSPENDED. 05 NOV 12:28
    2014 UNTIL 31 DEC 16:00 2014. CREATED: 05 NOV 12:38 2014

ETSI P7182/14 AD ETSI: RWY25L/07R CLOSED (EXCEPT AUTORIZED A3ST
    BELUGA MOVEMENTS). 06 NOV 09:10 2014 UNTIL 31 DEC 16:00 2014.
    CREATED: 06 NOV 09:13 2014

ETSI P7183/14 AD ETSI: TAKEOFF OF MIL JETS ONLY BTWN: MON-THU:
    0800-1100 AND 1230-1600, FRI: 0800-1100. 06 NOV 09:12 2014
    UNTIL 31 DEC 16:00 2014. CREATED: 06 NOV 09:16 2014

ETSI P7184/14 AD ETSI: NO ALTERNATE. 06 NOV 09:14 2014 UNTIL
    31 DEC 16:00 2014. CREATED: 06 NOV 09:17 2014

ETSI P7185/14 AD ETSI: NO PRACT APCH. 06 NOV 09:16 2014 UNTIL
    31 DEC 16:00 2014. CREATED: 06 NOV 09:20 2014

ETSI P7186/14 AD ETSI: NO APPROACH END ARRESTMENT ON RWY07L.
    06 NOV 09:19 2014 UNTIL 31 DEC 16:00 2014. CREATED: 06 NOV
    09:22 2014

ETSI P7187/14 AD ETSI: LVTO-PROCEDURE SUSPENDED. 06 NOV 09:22
    2014 UNTIL 31 DEC 16:00 2014. CREATED: 06 NOV 09:25 2014

ETSI P7188/14 AD ETSI: PAR RWY25R/07L OUT OF SERVICE. 06 NOV
    09:25 2014 UNTIL 31 DEC 16:00 2014. CREATED: 06 NOV 09:36
    2014

ETSI P7189/14 AD ETSI: NO SRA POSSIBLE. 06 NOV 09:29 2014 UNTIL
    31 DEC 16:00 2014. CREATED: 06 NOV 09:38 2014

ETSI P7194/14 AD ETSI: 24HRS PPR FOR MIL TRAFFIC. 06 NOV 09:52
    2014 UNTIL 31 DEC 16:00 2014. CREATED: 06 NOV 09:56 2014

ETSI P7481/14 AD ETSI: TAXIWAY S CLSD BTWN INTERSECTION A4 AND
    A5 FOR A/C WITH WIDE WINGSPAN DUE TO CONSTRUCTION WORK (DETAILED
    INFORMATION BY TOWER. 18 NOV 10:10 2014 UNTIL 05 DEC 16:00
    2014. CREATED: 18 NOV 10:15 2014

ETSI P7663/14 AD ETSI: RWY25R/07L AND TAXYWAY NORTH CLOSED DUE
    TO CONSTRUCTION WORK. 29 NOV 07:00 2014 UNTIL 29 NOV 16:00
    2014. CREATED: 26 NOV 15:30 2014

ETSI V0419/14 [DOD PROCEDURAL NOTAM] IAP TACAN RWY 25R: INCREASE
    ALL INBOUND/OUTBOUND COURSES/RADIALS BY 1 DEGREE. 28 OCT
    10:08 2014 UNTIL 15 JAN 23:59 2015. CREATED: 28 OCT 10:09
    2014

ETSI V0420/14 [DOD PROCEDURAL NOTAM] IAP TACAN RWY 07R: CHANGE
    IGL OUTBOUND RADIAL TO R-216. 28 OCT 10:09 2014 UNTIL 15
    JAN 23:59 2015. CREATED: 28 OCT 10:10 2014

---------------------------------------------------------------------------